Time;durP1;ratioP1;P1;durP2;ratioP2;P2;SDS_P1;SDS_P2;PMS_P1;PMS_P2;Temp;Humidity;BMP_temperature;BMP_pressure;BME280_temperature;BME280_humidity;BME280_pressure;Samples;Min_cycle;Max_cycle;Signal;HPM_P1;HPM_P2
2023/04/27 00:02:10;;;;;;;11.40;10.50;;;;;;;7.39;64.42;92506.63;5113781;28;20192;-72
2023/04/27 00:04:36;;;;;;;12.07;11.00;;;;;;;7.39;63.35;92495.47;5122331;28;20184;-73
2023/04/27 00:07:02;;;;;;;11.40;10.23;;;;;;;7.45;63.35;92503.00;5132580;28;20182;-74
2023/04/27 00:09:27;;;;;;;11.60;10.20;;;;;;;7.28;63.69;92478.34;5132314;27;20223;-73
2023/04/27 00:11:52;;;;;;;10.97;10.10;;;;;;;7.42;64.44;92508.72;5128435;28;20180;-74
2023/04/27 00:14:19;;;;;;;10.43;9.73;;;;;;;7.37;63.95;92523.50;5114418;28;20184;-72
2023/04/27 00:16:45;;;;;;;10.67;9.97;;;;;;;7.42;63.98;92506.13;5126530;28;20450;-73
2023/04/27 00:19:12;;;;;;;11.20;10.10;;;;;;;7.42;63.78;92519.09;5129293;28;20187;-73
2023/04/27 00:21:38;;;;;;;10.60;9.87;;;;;;;7.07;64.04;92487.94;5114211;28;20225;-73
2023/04/27 00:24:03;;;;;;;10.13;9.53;;;;;;;7.30;63.61;92518.56;5122517;28;20195;-73
2023/04/27 00:26:29;;;;;;;11.00;9.77;;;;;;;7.22;65.52;92510.53;5124315;28;20292;-73
2023/04/27 00:28:54;;;;;;;10.23;9.60;;;;;;;7.12;64.27;92500.94;5131885;28;20184;-74
2023/04/27 00:31:20;;;;;;;10.83;10.00;;;;;;;7.08;64.43;92505.06;5120283;28;20223;-73
2023/04/27 00:33:45;;;;;;;10.50;9.90;;;;;;;6.98;64.10;92496.50;5126017;28;20184;-73
2023/04/27 00:36:10;;;;;;;11.67;10.77;;;;;;;6.94;64.28;92498.06;5124798;27;20207;-73
2023/04/27 00:38:36;;;;;;;11.47;10.73;;;;;;;7.00;64.41;92505.59;5125283;28;20247;-73
2023/04/27 00:41:02;;;;;;;11.17;9.93;;;;;;;6.99;64.81;92508.47;5113171;28;20219;-73
2023/04/27 00:43:28;;;;;;;11.97;11.00;;;;;;;6.79;65.57;92488.44;5120509;28;20175;-73
2023/04/27 00:45:54;;;;;;;10.33;9.80;;;;;;;6.89;65.62;92511.81;5120591;27;20216;-74
2023/04/27 00:48:19;;;;;;;11.33;10.63;;;;;;;6.78;65.24;92512.06;5122939;28;20209;-73
2023/04/27 00:50:44;;;;;;;11.07;9.97;;;;;;;6.71;66.04;92519.31;5119194;28;20215;-73
2023/04/27 00:53:10;;;;;;;12.63;10.97;;;;;;;6.61;65.37;92503.72;5130459;28;20198;-73
2023/04/27 00:55:36;;;;;;;11.63;10.67;;;;;;;6.66;65.50;92514.91;5119206;28;20242;-73
2023/04/27 00:58:01;;;;;;;11.53;10.87;;;;;;;6.65;64.97;92521.13;5117970;28;20176;-73
2023/04/27 01:00:27;;;;;;;11.20;10.33;;;;;;;6.61;64.89;92530.44;5112489;28;20220;-73
2023/04/27 01:02:53;;;;;;;11.03;10.07;;;;;;;6.65;65.22;92525.50;5125455;28;20215;-72
2023/04/27 01:05:19;;;;;;;10.97;9.87;;;;;;;6.55;65.21;92521.88;5117517;28;20226;-74
2023/04/27 01:07:44;;;;;;;11.37;10.27;;;;;;;6.53;64.78;92543.91;5108928;28;20172;-73
2023/04/27 01:10:10;;;;;;;11.13;10.23;;;;;;;6.53;64.93;92530.94;5105222;28;20280;-73
2023/04/27 01:12:35;;;;;;;10.87;10.10;;;;;;;6.54;64.71;92535.88;5132430;28;20175;-73
2023/04/27 01:15:00;;;;;;;11.37;10.57;;;;;;;6.51;64.84;92528.59;5125478;28;20250;-72
2023/04/27 01:17:26;;;;;;;11.97;10.53;;;;;;;6.45;64.55;92528.84;5125790;28;20179;-73
2023/04/27 01:19:54;;;;;;;10.57;9.87;;;;;;;6.54;65.32;92529.91;5116816;28;20224;-73
2023/04/27 01:22:20;;;;;;;11.03;10.33;;;;;;;6.55;64.81;92521.88;5112064;28;20191;-73
2023/04/27 01:24:45;;;;;;;11.17;10.00;;;;;;;6.44;64.67;92528.06;5081771;28;20231;-74
2023/04/27 01:27:12;;;;;;;10.93;10.20;;;;;;;6.41;64.81;92536.34;5125437;28;20203;-73
2023/04/27 01:29:37;;;;;;;10.83;9.90;;;;;;;6.50;64.68;92537.44;5123889;28;20221;-73
2023/04/27 01:32:03;;;;;;;10.57;9.93;;;;;;;6.49;64.29;92540.25;5123705;28;20184;-73
2023/04/27 01:34:28;;;;;;;10.33;9.67;;;;;;;6.60;64.44;92539.25;5116698;28;20198;-74
2023/04/27 01:36:54;;;;;;;11.17;10.37;;;;;;;6.56;65.44;92527.84;5112511;28;20733;-74
2023/04/27 01:39:19;;;;;;;10.93;10.17;;;;;;;6.31;64.06;92509.63;5102548;28;20165;-70
2023/04/27 01:41:44;;;;;;;9.70;9.10;;;;;;;6.29;64.61;92516.84;5097832;28;20239;-71
2023/04/27 01:44:10;;;;;;;11.37;10.53;;;;;;;6.54;64.23;92540.28;5102546;28;20198;-73
2023/04/27 01:46:36;;;;;;;11.03;10.10;;;;;;;6.37;63.59;92534.53;5104372;28;20237;-72
2023/04/27 01:49:01;;;;;;;13.80;9.93;;;;;;;6.40;64.43;92545.16;5094193;28;20185;-72
2023/04/27 01:51:27;;;;;;;10.67;9.73;;;;;;;6.18;63.70;92516.06;5106869;28;20224;-72
2023/04/27 01:53:52;;;;;;;10.80;10.20;;;;;;;6.26;64.31;92519.97;5100577;28;20188;-72
2023/04/27 01:56:17;;;;;;;10.60;10.00;;;;;;;6.25;63.92;92537.34;5107414;28;20224;-72
2023/04/27 01:58:43;;;;;;;11.43;10.57;;;;;;;6.16;63.74;92527.72;5111933;28;20183;-73
2023/04/27 02:01:08;;;;;;;11.60;10.63;;;;;;;6.33;63.88;92536.06;5120249;28;20242;-73
2023/04/27 02:03:34;;;;;;;10.70;9.63;;;;;;;6.29;63.92;92535.78;5114906;28;20246;-72
2023/04/27 02:05:59;;;;;;;9.70;9.10;;;;;;;6.23;64.29;92536.03;5112225;28;20298;-72
2023/04/27 02:08:25;;;;;;;10.37;9.40;;;;;;;6.25;63.24;92521.00;5126273;28;20218;-73
2023/04/27 02:10:51;;;;;;;10.23;9.53;;;;;;;6.22;63.07;92537.84;5111547;28;20219;-72
2023/04/27 02:13:16;;;;;;;10.03;9.13;;;;;;;6.26;63.53;92544.06;5092187;28;20214;-72
2023/04/27 02:15:42;;;;;;;10.23;9.47;;;;;;;6.25;62.83;92536.56;5102587;28;20232;-72
2023/04/27 02:18:07;;;;;;;9.27;8.67;;;;;;;6.23;63.29;92543.81;5098310;28;20196;-72
2023/04/27 02:20:33;;;;;;;10.43;9.70;;;;;;;6.12;62.89;92531.81;5101521;28;20224;-73
2023/04/27 02:22:59;;;;;;;10.70;9.93;;;;;;;6.10;63.56;92523.53;5102425;28;20177;-73
2023/04/27 02:25:25;;;;;;;11.37;10.23;;;;;;;6.09;63.62;92538.31;5101957;28;20234;-72
2023/04/27 02:27:51;;;;;;;11.10;10.23;;;;;;;6.26;63.58;92546.66;5107923;28;20196;-69
2023/04/27 02:30:16;;;;;;;11.80;9.40;;;;;;;6.18;62.67;92541.19;5109298;28;20227;-70
2023/04/27 02:32:42;;;;;;;11.93;9.80;;;;;;;6.26;63.89;92551.06;5095493;28;20222;-69
2023/04/27 02:35:08;;;;;;;10.30;9.53;;;;;;;6.15;63.16;92536.50;5098105;28;20248;-70
2023/04/27 02:37:34;;;;;;;9.80;9.00;;;;;;;6.07;62.91;92513.69;5103922;28;20192;-71
2023/04/27 02:39:59;;;;;;;10.27;9.67;;;;;;;6.14;63.24;92529.78;5101194;28;20328;-70
2023/04/27 02:42:25;;;;;;;10.90;10.30;;;;;;;6.21;63.97;92548.47;5107399;28;20180;-70
2023/04/27 02:44:50;;;;;;;10.53;9.87;;;;;;;6.20;63.13;92544.31;5101832;28;20223;-70
2023/04/27 02:47:16;;;;;;;10.37;9.67;;;;;;;6.21;63.67;92543.28;5120723;28;20202;-70
2023/04/27 02:49:42;;;;;;;10.43;9.77;;;;;;;6.20;63.29;92554.66;5113240;28;20199;-70
2023/04/27 02:52:07;;;;;;;11.40;10.67;;;;;;;6.11;62.71;92546.63;5114224;28;20192;-71
2023/04/27 02:54:33;;;;;;;10.77;10.17;;;;;;;6.21;63.46;92551.06;5111367;28;20176;-70
2023/04/27 02:56:58;;;;;;;10.47;9.80;;;;;;;6.02;63.11;92527.38;5130686;28;20211;-70
2023/04/27 02:59:24;;;;;;;11.73;10.73;;;;;;;6.11;62.88;92541.44;5127085;28;20183;-71
2023/04/27 03:01:49;;;;;;;11.07;10.37;;;;;;;6.18;63.42;92561.91;5093603;28;20184;-71
2023/04/27 03:04:16;;;;;;;12.67;9.77;;;;;;;6.14;64.03;92550.50;5092512;28;20681;-70
2023/04/27 03:06:43;;;;;;;10.43;9.73;;;;;;;6.12;63.60;92563.72;5121144;28;20227;-70
2023/04/27 03:09:09;;;;;;;9.73;9.13;;;;;;;6.11;63.25;92551.81;5110444;28;20212;-69
2023/04/27 03:11:35;;;;;;;12.23;9.47;;;;;;;6.07;63.45;92555.16;5121919;28;20231;-69
2023/04/27 03:14:04;;;;;;;11.90;10.00;;;;;;;6.08;62.91;92554.09;5121224;28;20211;-69
2023/04/27 03:16:33;;;;;;;10.40;9.63;;;;;;;6.22;63.68;92563.78;5121892;28;20246;-70
2023/04/27 03:18:59;;;;;;;11.40;10.40;;;;;;;6.05;63.62;92557.22;5117351;28;20195;-70
2023/04/27 03:21:25;;;;;;;10.53;9.80;;;;;;;6.17;63.52;92560.38;5111897;28;20234;-69
2023/04/27 03:23:51;;;;;;;11.07;10.47;;;;;;;6.21;62.47;92566.63;5122745;28;20175;-70
2023/04/27 03:26:16;;;;;;;10.50;9.80;;;;;;;6.23;62.94;92569.72;5109959;28;20259;-70
2023/04/27 03:28:41;;;;;;;10.13;9.63;;;;;;;6.16;62.36;92569.19;5109683;28;20188;-70
2023/04/27 03:31:09;;;;;;;10.60;10.00;;;;;;;6.20;62.62;92573.59;5116836;28;20220;-69
2023/04/27 03:33:35;;;;;;;10.60;10.00;;;;;;;6.20;63.40;92583.97;5110351;28;20243;-69
2023/04/27 03:36:03;;;;;;;10.60;9.93;;;;;;;6.11;62.56;92572.53;5119795;28;20212;-71
2023/04/27 03:38:28;;;;;;;10.93;10.10;;;;;;;6.42;67.53;92584.59;5121740;28;20206;-68
2023/04/27 03:40:54;;;;;;;13.47;11.03;;;;;;;6.46;63.01;92574.47;5118392;28;20238;-70
2023/04/27 03:43:20;;;;;;;11.10;10.10;;;;;;;6.20;62.35;92578.78;5122849;28;20215;-66
2023/04/27 03:45:46;;;;;;;10.73;9.70;;;;;;;6.24;62.50;92589.44;5118006;28;20266;-67
2023/04/27 03:48:13;;;;;;;10.33;9.80;;;;;;;6.22;61.99;92586.31;5122509;28;20199;-68
2023/04/27 03:50:38;;;;;;;11.10;10.23;;;;;;;6.11;62.10;92580.31;5110270;28;20230;-69
2023/04/27 03:53:04;;;;;;;10.93;10.13;;;;;;;6.16;62.36;92580.31;5096165;28;20189;-69
2023/04/27 03:55:30;;;;;;;10.43;9.50;;;;;;;6.22;62.39;92600.06;5094968;28;20217;-71
2023/04/27 03:57:55;;;;;;;10.67;9.97;;;;;;;6.20;62.02;92596.16;5094929;28;20247;-73
2023/04/27 04:00:21;;;;;;;12.27;11.27;;;;;;;6.29;60.86;92592.03;5112358;28;20227;-72
2023/04/27 04:02:47;;;;;;;10.73;10.13;;;;;;;6.43;61.82;92595.72;5118053;28;20215;-71
2023/04/27 04:05:13;;;;;;;11.17;10.40;;;;;;;6.34;61.48;92611.00;5113888;28;20680;-72
2023/04/27 04:07:42;;;;;;;11.97;10.70;;;;;;;6.04;61.54;92545.25;5116465;28;20196;-72
2023/04/27 04:10:09;;;;;;;11.13;10.23;;;;;;;6.39;61.29;92605.06;5111739;28;20212;-70
2023/04/27 04:12:34;;;;;;;11.83;11.03;;;;;;;6.53;62.77;92611.34;5111368;28;20206;-69
2023/04/27 04:15:00;;;;;;;12.90;11.50;;;;;;;6.40;61.30;92615.16;5105721;28;20220;-70
2023/04/27 04:17:25;;;;;;;11.50;10.40;;;;;;;6.23;61.21;92611.19;5089408;28;20173;-72
2023/04/27 04:19:50;;;;;;;11.80;11.00;;;;;;;6.59;61.07;92615.50;5092425;28;20270;-74
2023/04/27 04:22:16;;;;;;;10.37;9.67;;;;;;;6.47;61.36;92617.53;5091625;28;20200;-76
2023/04/27 04:24:41;;;;;;;12.50;11.63;;;;;;;6.06;61.37;92588.03;5091297;28;20242;-75
2023/04/27 04:27:07;;;;;;;11.53;10.67;;;;;;;6.24;61.26;92625.72;5097916;28;20173;-75
2023/04/27 04:29:32;;;;;;;11.77;10.90;;;;;;;6.23;61.01;92621.56;5086446;28;20213;-76
2023/04/27 04:31:58;;;;;;;11.20;10.50;;;;;;;6.40;60.60;92633.31;5080588;28;20211;-76
2023/04/27 04:34:23;;;;;;;11.10;10.33;;;;;;;6.08;60.08;92580.81;5092311;28;20203;-75
2023/04/27 04:36:52;;;;;;;11.67;10.60;;;;;;;6.17;60.84;92617.38;5093275;28;20228;-75
2023/04/27 04:39:21;;;;;;;11.77;11.07;;;;;;;6.48;60.04;92637.25;5090031;28;20179;-76
2023/04/27 04:41:48;;;;;;;11.50;10.90;;;;;;;6.68;60.33;92637.31;5079112;28;20228;-70
2023/04/27 04:44:16;;;;;;;18.33;10.73;;;;;;;6.51;59.02;92629.75;5080430;28;20189;-69
2023/04/27 04:46:41;;;;;;;11.30;10.17;;;;;;;6.65;59.42;92645.63;5110587;28;20228;-70
2023/04/27 04:49:07;;;;;;;12.77;11.73;;;;;;;6.38;59.33;92648.34;5112669;28;20202;-71
2023/04/27 04:51:33;;;;;;;10.70;9.90;;;;;;;6.51;58.80;92647.09;5111718;28;20923;-70
2023/04/27 04:53:58;;;;;;;10.53;9.83;;;;;;;6.53;59.42;92629.50;5125667;28;20199;-70
2023/04/27 04:56:24;;;;;;;10.87;10.27;;;;;;;6.80;58.82;92666.44;5123812;28;20320;-71
2023/04/27 04:58:49;;;;;;;11.77;10.87;;;;;;;6.90;58.96;92653.50;5114575;28;20239;-71
2023/04/27 05:01:15;;;;;;;11.13;10.47;;;;;;;7.01;58.93;92669.88;5113431;28;20220;-70
2023/04/27 05:03:40;;;;;;;11.97;11.00;;;;;;;6.68;58.60;92676.22;5114253;28;20627;-70
2023/04/27 05:06:06;;;;;;;11.93;10.73;;;;;;;6.68;58.85;92678.06;5122565;28;20211;-70
2023/04/27 05:08:31;;;;;;;11.53;10.40;;;;;;;6.95;59.07;92676.88;5112036;28;20200;-70
2023/04/27 05:10:57;;;;;;;10.77;10.07;;;;;;;7.50;59.47;92665.84;5116611;28;20219;-68
2023/04/27 05:13:23;;;;;;;11.23;10.30;;;;;;;7.24;56.88;92682.38;5121283;28;20183;-69
2023/04/27 05:15:49;;;;;;;11.13;9.63;;;;;;;7.12;58.01;92689.63;5116260;28;20242;-71
2023/04/27 05:18:15;;;;;;;10.70;9.80;;;;;;;7.11;56.66;92683.69;5121801;28;20187;-71
2023/04/27 05:20:40;;;;;;;10.80;10.10;;;;;;;6.93;57.97;92689.31;5105578;28;20249;-69
2023/04/27 05:23:06;;;;;;;9.97;9.27;;;;;;;7.04;59.85;92698.69;5097174;28;20188;-68
2023/04/27 05:25:32;;;;;;;11.83;10.80;;;;;;;7.11;57.92;92696.66;5100652;28;20227;-70
2023/04/27 05:27:58;;;;;;;13.20;10.47;;;;;;;6.82;59.14;92692.13;5115719;28;20171;-70
2023/04/27 05:30:23;;;;;;;10.43;9.43;;;;;;;7.10;57.87;92696.88;5120723;28;20263;-72
2023/04/27 05:32:49;;;;;;;10.77;9.90;;;;;;;7.02;58.77;92677.41;5114662;28;20195;-71
2023/04/27 05:35:14;;;;;;;11.30;10.57;;;;;;;6.98;58.74;92697.13;5119559;28;20272;-72
2023/04/27 05:37:40;;;;;;;11.37;10.33;;;;;;;7.00;58.44;92700.25;5103231;28;20196;-70
2023/04/27 05:40:08;;;;;;;11.67;11.00;;;;;;;7.22;57.93;92700.81;5111263;28;20246;-71
2023/04/27 05:42:36;;;;;;;10.97;9.90;;;;;;;7.04;58.40;92683.13;5118304;28;20195;-70
2023/04/27 05:45:02;;;;;;;11.27;10.57;;;;;;;6.99;58.88;92698.69;5109751;28;20224;-69
2023/04/27 05:47:29;;;;;;;11.03;10.00;;;;;;;6.53;60.62;92689.13;5126539;28;20183;-70
2023/04/27 05:49:54;;;;;;;10.97;10.27;;;;;;;6.52;59.26;92700.56;5120951;28;20250;-70
2023/04/27 05:52:20;;;;;;;10.73;9.77;;;;;;;6.85;60.37;92705.38;5123544;28;20188;-70
2023/04/27 05:54:49;;;;;;;14.50;10.30;;;;;;;6.98;59.38;92697.13;5117825;28;20242;-70
2023/04/27 05:57:14;;;;;;;10.57;9.70;;;;;;;6.98;59.18;92711.91;5123041;28;20211;-70
2023/04/27 05:59:40;;;;;;;11.47;10.60;;;;;;;7.06;59.04;92707.03;5120414;28;20184;-69
2023/04/27 06:02:06;;;;;;;10.20;9.63;;;;;;;6.98;59.58;92701.53;5126178;28;20182;-70
2023/04/27 06:04:32;;;;;;;11.17;10.27;;;;;;;7.30;58.43;92707.34;5110968;28;20215;-70
2023/04/27 06:07:02;;;;;;;10.47;9.73;;;;;;;7.05;58.24;92671.69;5126492;28;20176;-70
2023/04/27 06:09:29;;;;;;;11.90;11.20;;;;;;;7.05;58.32;92708.03;5116689;28;20218;-69
2023/04/27 06:11:57;;;;;;;10.67;9.77;;;;;;;7.41;58.87;92706.34;5117117;28;20192;-74
2023/04/27 06:14:22;;;;;;;10.53;9.83;;;;;;;7.15;57.76;92717.69;5122845;28;20181;-73
2023/04/27 06:16:48;;;;;;;11.40;10.50;;;;;;;7.33;57.80;92704.25;5110419;28;20223;-73
2023/04/27 06:19:13;;;;;;;10.93;10.13;;;;;;;7.54;58.14;92706.63;5120444;28;20202;-73
2023/04/27 06:21:38;;;;;;;11.43;10.53;;;;;;;7.38;57.83;92697.22;5117953;28;20246;-73
2023/04/27 06:24:04;;;;;;;12.27;10.23;;;;;;;8.21;57.35;92701.19;5123083;28;20165;-73
2023/04/27 06:26:30;;;;;;;10.97;10.03;;;;;;;7.69;56.96;92703.25;5116426;28;20223;-73
2023/04/27 06:28:55;;;;;;;11.40;10.70;;;;;;;7.89;56.73;92704.06;5110590;28;20176;-73
2023/04/27 06:31:21;;;;;;;10.30;9.73;;;;;;;7.82;56.73;92695.75;5115494;28;20257;-73
2023/04/27 06:33:46;;;;;;;11.00;10.23;;;;;;;7.87;56.96;92690.56;5111321;28;20240;-73
2023/04/27 06:36:11;;;;;;;10.40;9.40;;;;;;;7.75;57.22;92710.81;5123840;27;20206;-73
2023/04/27 06:38:37;;;;;;;10.73;9.73;;;;;;;7.95;56.66;92716.00;5115710;28;20179;-73
2023/04/27 06:41:03;;;;;;;11.83;10.13;;;;;;;8.40;56.65;92717.88;5113669;28;20219;-73
2023/04/27 06:43:29;;;;;;;10.47;9.53;;;;;;;8.04;56.35;92701.47;5110316;28;20179;-73
2023/04/27 06:45:54;;;;;;;11.13;10.23;;;;;;;8.17;55.78;92633.31;5111152;28;20224;-73
2023/04/27 06:48:20;;;;;;;10.17;9.40;;;;;;;7.80;56.62;92694.44;5117467;28;20221;-74
2023/04/27 06:50:46;;;;;;;10.63;9.83;;;;;;;8.39;55.98;92697.31;5114408;28;20211;-73
2023/04/27 06:53:11;;;;;;;10.10;9.40;;;;;;;8.47;55.15;92702.00;5120433;28;20187;-73
2023/04/27 06:55:37;;;;;;;10.87;9.80;;;;;;;8.60;55.04;92712.63;5103736;28;20227;-73
2023/04/27 06:58:03;;;;;;;10.33;9.73;;;;;;;8.74;55.92;92673.81;5117472;28;20229;-73
2023/04/27 07:00:28;;;;;;;10.67;9.97;;;;;;;8.72;53.68;92717.53;5120530;27;20987;-73
2023/04/27 07:02:54;;;;;;;11.57;10.57;;;;;;;9.37;52.88;92714.72;5110642;28;20215;-74
2023/04/27 07:05:19;;;;;;;10.60;10.00;;;;;;;9.74;53.22;92709.81;5116819;28;20289;-73
2023/04/27 07:07:46;;;;;;;11.07;10.47;;;;;;;10.25;50.65;92713.66;5128453;28;20172;-73
2023/04/27 07:10:11;;;;;;;10.60;9.80;;;;;;;9.97;51.76;92690.09;5101784;28;20224;-74
2023/04/27 07:12:37;;;;;;;11.73;10.67;;;;;;;9.39;51.98;92707.38;5121620;28;20199;-73
2023/04/27 07:15:05;;;;;;;12.13;11.23;;;;;;;9.52;51.95;92696.38;5116428;28;20219;-70
2023/04/27 07:17:31;;;;;;;10.37;9.70;;;;;;;9.19;52.18;92712.69;5115658;28;20196;-69
2023/04/27 07:19:57;;;;;;;11.80;10.97;;;;;;;9.90;52.01;92723.53;5112829;28;20245;-70
2023/04/27 07:22:22;;;;;;;10.97;10.23;;;;;;;9.54;51.26;92694.31;5110379;28;20263;-68
2023/04/27 07:24:47;;;;;;;11.37;10.73;;;;;;;9.74;51.69;92720.25;5112597;28;20223;-70
2023/04/27 07:27:13;;;;;;;12.03;11.23;;;;;;;10.07;51.52;92714.28;5109517;28;20262;-71
2023/04/27 07:29:39;;;;;;;11.87;10.70;;;;;;;10.15;52.70;92705.88;5128113;28;20195;-76
2023/04/27 07:32:06;;;;;;;11.27;10.47;;;;;;;10.25;51.19;92710.25;5125512;28;20180;-76
2023/04/27 07:34:32;;;;;;;11.27;10.17;;;;;;;10.11;51.17;92699.66;5117330;28;20195;-77
2023/04/27 07:36:57;;;;;;;11.37;10.67;;;;;;;10.89;49.59;92721.16;5126804;28;20185;-72
2023/04/27 07:39:22;;;;;;;12.00;10.77;;;;;;;10.46;47.94;92691.53;5120279;28;20234;-73
2023/04/27 07:41:48;;;;;;;11.00;10.30;;;;;;;9.80;49.61;92719.91;5120649;28;20214;-73
2023/04/27 07:44:16;;;;;;;10.67;9.80;;;;;;;10.52;50.25;92706.09;5127270;28;20187;-73
2023/04/27 07:46:42;;;;;;;10.80;9.97;;;;;;;10.55;49.59;92710.75;5126389;28;20223;-72
2023/04/27 07:49:07;;;;;;;10.93;10.13;;;;;;;10.42;47.78;92700.97;5116391;28;20207;-73
2023/04/27 07:51:33;;;;;;;11.70;10.90;;;;;;;10.21;49.76;92707.41;5125690;28;20227;-72
2023/04/27 07:53:59;;;;;;;10.90;10.10;;;;;;;10.55;49.33;92700.31;5126421;28;20203;-73
2023/04/27 07:56:25;;;;;;;11.07;10.27;;;;;;;10.05;50.74;92716.38;5122291;28;20227;-72
2023/04/27 07:58:50;;;;;;;11.67;10.77;;;;;;;10.00;49.56;92682.50;5111851;28;20186;-73
2023/04/27 08:01:16;;;;;;;11.50;10.80;;;;;;;10.85;50.32;92710.47;5119917;28;20221;-72
2023/04/27 08:03:41;;;;;;;11.83;10.80;;;;;;;10.28;48.13;92684.41;5108649;28;20210;-72
2023/04/27 08:06:07;;;;;;;10.03;9.23;;;;;;;11.39;47.39;92705.66;5121802;28;20228;-73
2023/04/27 08:08:32;;;;;;;9.77;9.27;;;;;;;11.36;46.52;92721.91;5110897;28;20196;-73
2023/04/27 08:10:57;;;;;;;10.73;10.03;;;;;;;10.93;45.78;92701.25;5110224;28;20298;-72
2023/04/27 08:13:23;;;;;;;10.07;9.47;;;;;;;10.53;48.70;92709.47;5128750;28;20266;-72
2023/04/27 08:15:49;;;;;;;10.27;9.67;;;;;;;10.80;47.44;92715.72;5120150;28;20211;-73
2023/04/27 08:18:16;;;;;;;10.60;9.93;;;;;;;10.38;49.58;92707.78;5111345;28;20202;-72
2023/04/27 08:20:42;;;;;;;9.90;8.90;;;;;;;10.82;49.22;92713.63;5111028;28;20236;-72
2023/04/27 08:23:07;;;;;;;11.13;10.13;;;;;;;11.12;47.36;92710.69;5106033;28;20177;-73
2023/04/27 08:25:35;;;;;;;9.87;9.37;;;;;;;11.74;45.70;92711.50;5103042;28;20229;-72
2023/04/27 08:28:00;;;;;;;10.27;9.57;;;;;;;10.90;45.95;92675.69;5131366;28;20180;-73
2023/04/27 08:30:25;;;;;;;10.33;9.43;;;;;;;10.50;47.19;92692.56;5131001;28;20234;-71
2023/04/27 08:32:51;;;;;;;10.13;9.63;;;;;;;10.47;47.52;92716.59;5115537;28;20195;-68
2023/04/27 08:35:17;;;;;;;9.90;9.40;;;;;;;11.08;47.72;92714.91;5111416;28;20233;-69
2023/04/27 08:37:43;;;;;;;12.07;11.17;;;;;;;11.04;46.09;92716.53;5111533;28;20184;-70
2023/04/27 08:40:09;;;;;;;9.83;9.03;;;;;;;11.16;46.94;92714.31;5113313;28;20216;-69
2023/04/27 08:42:35;;;;;;;11.13;10.33;;;;;;;11.77;44.99;92714.34;5117316;28;20225;-69
2023/04/27 08:45:01;;;;;;;9.97;9.43;;;;;;;11.76;44.77;92696.31;5119844;28;20220;-68
2023/04/27 08:47:26;;;;;;;10.80;10.20;;;;;;;10.80;47.36;92713.13;5130462;28;20173;-71
2023/04/27 08:49:52;;;;;;;10.53;9.83;;;;;;;10.16;47.51;92694.41;5123711;28;20230;-71
2023/04/27 08:52:17;;;;;;;11.40;10.60;;;;;;;10.87;46.99;92712.78;5123807;28;20185;-71
2023/04/27 08:54:43;;;;;;;10.70;10.00;;;;;;;11.22;47.42;92721.03;5124068;27;20202;-71
2023/04/27 08:57:12;;;;;;;10.77;9.93;;;;;;;11.69;47.49;92719.44;5117797;28;20217;-72
2023/04/27 08:59:41;;;;;;;10.53;9.73;;;;;;;11.85;44.13;92712.94;5128325;27;20188;-72
2023/04/27 09:02:18;;;;;;;10.47;9.77;;;;;;;10.79;45.93;92710.78;5122973;28;20181;-73
2023/04/27 09:04:43;;;;;;;11.63;10.63;;;;;;;11.21;46.52;92710.84;5112979;28;20172;-68
2023/04/27 09:07:11;;;;;;;11.83;10.77;;;;;;;11.24;46.51;92707.66;5130768;28;20773;-68
2023/04/27 09:09:36;;;;;;;10.67;9.87;;;;;;;11.97;46.94;92702.84;5124967;28;20183;-69
2023/04/27 09:12:16;;;;;;;10.97;10.27;;;;;;;11.80;45.54;92710.41;5112491;28;20230;-68
2023/04/27 09:14:42;;;;;;;9.97;9.47;;;;;;;11.74;45.62;92716.75;5110798;28;20237;-68
2023/04/27 09:17:08;;;;;;;11.37;10.33;;;;;;;11.95;44.94;92715.41;5106523;28;20184;-68
2023/04/27 09:19:33;;;;;;;10.67;9.97;;;;;;;11.64;44.24;92702.00;5122093;28;20192;-69
2023/04/27 09:22:07;;;;;;;11.47;10.63;;;;;;;11.09;44.85;92708.66;5112334;28;20195;-70
2023/04/27 09:24:32;;;;;;;9.47;8.87;;;;;;;10.68;45.60;92698.88;5113870;28;20198;-69
2023/04/27 09:26:58;;;;;;;10.20;9.70;;;;;;;11.05;45.79;92694.56;5110452;28;20418;-69
2023/04/27 09:29:37;;;;;;;10.57;9.80;;;;;;;10.73;45.23;92701.44;5116781;27;20192;-72
2023/04/27 09:32:21;;;;;;;10.63;10.03;;;;;;;10.95;45.47;92699.91;5108111;28;20256;-69
2023/04/27 09:34:46;;;;;;;10.07;9.47;;;;;;;11.80;44.18;92684.25;5100081;28;20212;-69
2023/04/27 09:37:13;;;;;;;11.73;10.50;;;;;;;11.56;44.00;92683.50;5114383;28;20188;-70
2023/04/27 09:39:39;;;;;;;10.97;10.27;;;;;;;10.92;43.80;92676.97;5111524;28;20184;-69
2023/04/27 09:42:05;;;;;;;10.93;10.03;;;;;;;11.58;44.77;92678.78;5111798;28;20215;-69
2023/04/27 09:44:30;;;;;;;9.87;9.27;;;;;;;12.16;44.30;92693.09;5111731;28;20579;-69
2023/04/27 09:47:00;;;;;;;10.47;9.53;;;;;;;11.59;43.03;92675.09;5104930;28;20185;-69
2023/04/27 09:49:27;;;;;;;10.27;9.60;;;;;;;11.99;42.41;92683.16;5112842;28;20180;-70
2023/04/27 09:51:55;;;;;;;11.30;10.37;;;;;;;11.96;42.60;92678.50;5124739;28;20666;-69
2023/04/27 09:54:26;;;;;;;9.53;8.87;;;;;;;11.74;42.15;92680.13;5123401;28;20172;-70
2023/04/27 09:57:04;;;;;;;11.00;10.40;;;;;;;11.61;43.49;92671.13;5113002;28;20200;-69
2023/04/27 09:59:53;;;;;;;10.33;9.67;;;;;;;10.60;43.90;92670.78;5113212;28;20191;-70
2023/04/27 10:02:21;;;;;;;9.97;9.50;;;;;;;11.22;44.32;92673.97;5114223;28;20176;-70
2023/04/27 10:05:24;;;;;;;10.87;10.17;;;;;;;11.88;43.78;92670.50;5110067;28;20230;-69
2023/04/27 10:07:51;;;;;;;11.47;10.67;;;;;;;11.74;43.44;92661.81;5091368;28;20188;-69
2023/04/27 10:10:17;;;;;;;9.93;9.33;;;;;;;11.86;43.52;92667.41;5098476;28;20228;-69
2023/04/27 10:12:43;;;;;;;10.60;9.93;;;;;;;12.33;41.12;92667.16;5094787;28;20185;-68
2023/04/27 10:15:11;;;;;;;10.07;9.23;;;;;;;12.46;40.51;92667.22;5108602;28;20250;-67
2023/04/27 10:17:37;;;;;;;9.87;9.30;;;;;;;12.07;39.19;92671.25;5093356;28;20202;-68
2023/04/27 10:20:08;;;;;;;8.83;8.03;;;;;;;13.06;40.04;92681.06;5096468;28;20224;-68
2023/04/27 10:22:46;;;;;;;9.73;9.23;;;;;;;12.81;39.98;92666.59;5109509;28;20211;-69
2023/04/27 10:25:15;;;;;;;10.50;9.47;;;;;;;12.63;41.63;92661.41;5107314;28;20226;-69
2023/04/27 10:27:40;;;;;;;10.17;9.37;;;;;;;12.82;39.66;92670.00;5113518;28;20181;-69
2023/04/27 10:30:11;;;;;;;10.10;9.53;;;;;;;12.38;40.73;92649.56;5119395;28;20234;-69
2023/04/27 10:32:36;;;;;;;10.53;9.93;;;;;;;12.82;40.39;92665.50;5107650;28;20187;-69
2023/04/27 10:35:06;;;;;;;11.63;10.77;;;;;;;12.27;39.30;92622.00;5102749;28;20923;-68
2023/04/27 10:37:41;;;;;;;9.90;9.30;;;;;;;12.92;38.36;92659.31;5110893;28;20218;-69
2023/04/27 10:40:13;;;;;;;9.30;8.77;;;;;;;13.01;37.57;92667.31;5110580;28;20234;-68
2023/04/27 10:42:39;;;;;;;10.37;9.77;;;;;;;13.96;39.78;92665.31;5111609;28;20184;-69
2023/04/27 10:45:05;;;;;;;9.73;9.13;;;;;;;13.70;37.77;92653.81;5109978;28;20243;-69
2023/04/27 10:47:42;;;;;;;10.63;9.77;;;;;;;12.15;39.06;92654.91;5110341;28;20191;-69
2023/04/27 10:50:13;;;;;;;9.23;8.73;;;;;;;13.15;39.37;92668.88;5106329;28;20231;-69
2023/04/27 10:52:47;;;;;;;9.13;8.70;;;;;;;13.07;39.02;92666.13;5103482;28;20212;-72
2023/04/27 10:55:17;;;;;;;10.10;9.43;;;;;;;13.46;39.85;92669.03;5112682;28;20234;-72
2023/04/27 10:57:52;;;;;;;10.53;9.50;;;;;;;12.93;38.89;92664.25;5112503;28;20176;-70
2023/04/27 11:00:32;;;;;;;10.47;9.63;;;;;;;12.79;37.96;92652.22;5103924;28;20284;-71
2023/04/27 11:03:11;;;;;;;10.00;9.50;;;;;;;13.58;39.49;92650.91;5090268;28;20228;-69
2023/04/27 11:05:37;;;;;;;9.53;9.03;;;;;;;13.61;39.64;92656.38;5090107;28;20216;-70
2023/04/27 11:08:10;;;;;;;9.27;8.77;;;;;;;13.91;37.85;92658.31;5090307;28;20244;-69
2023/04/27 11:10:42;;;;;;;9.90;9.20;;;;;;;14.03;37.77;92642.81;5089598;28;20928;-70
2023/04/27 11:13:10;;;;;;;9.20;8.73;;;;;;;13.54;36.78;92649.97;5090343;28;20200;-70
2023/04/27 11:15:56;;;;;;;9.30;8.73;;;;;;;13.16;36.13;92623.22;5089816;28;20244;-69
2023/04/27 11:18:24;;;;;;;9.50;8.80;;;;;;;12.92;37.59;92643.59;5090080;28;20177;-71
2023/04/27 11:20:52;;;;;;;9.80;9.33;;;;;;;13.59;36.97;92655.88;5088936;28;20244;-71
2023/04/27 11:23:25;;;;;;;10.23;9.60;;;;;;;13.24;38.71;92638.28;5079997;28;20216;-71
2023/04/27 11:25:51;;;;;;;9.87;9.17;;;;;;;12.68;38.74;92658.72;5093083;28;20236;-70